createdAt,value
2023-04-15T00:00:29.095Z,96.36
2023-04-15T00:03:32.068Z,95.98
2023-04-15T00:06:35.276Z,95.48
2023-04-15T00:09:38.097Z,95.14
2023-04-15T00:12:41.221Z,94.31
2023-04-15T00:15:43.909Z,94.47
2023-04-15T00:18:46.386Z,94.36
2023-04-15T00:21:49.072Z,94.11
2023-04-15T00:24:52.569Z,93.15
2023-04-15T00:27:55.353Z,93.36
2023-04-15T00:30:58.757Z,93.34
2023-04-15T00:34:02.559Z,93.28
2023-04-15T00:37:04.995Z,93.28
2023-04-15T00:40:12.951Z,93.04
2023-04-15T00:43:16.532Z,92.87
2023-04-15T00:46:21.489Z,92.76
2023-04-15T00:49:24.901Z,91.94
2023-04-15T00:52:27.637Z,91.75
2023-04-15T00:55:30.185Z,91.60
2023-04-15T00:58:33.186Z,91.68
2023-04-15T01:01:39.058Z,91.86
2023-04-15T01:04:42.330Z,91.36
2023-04-15T01:07:44.668Z,91.32
2023-04-15T01:10:47.792Z,91.22
2023-04-15T01:13:51.239Z,91.19
2023-04-15T01:16:53.888Z,91.19
2023-04-15T01:20:00.135Z,91.36
2023-04-15T01:23:06.407Z,91.73
2023-04-15T01:26:09.575Z,92.40
2023-04-15T01:29:13.290Z,92.26
2023-04-15T01:32:15.957Z,92.64
2023-04-15T01:35:20.152Z,92.61
2023-04-15T01:38:22.587Z,92.97
2023-04-15T01:41:29.119Z,93.63
2023-04-15T01:44:31.665Z,94.32
2023-04-15T01:47:34.506Z,94.17
2023-04-15T01:50:38.267Z,95.38
2023-04-15T01:53:41.187Z,95.17
2023-04-15T01:56:44.290Z,95.43
2023-04-15T01:59:47.484Z,95.98
2023-04-15T02:02:50.779Z,96.04
2023-04-15T02:05:53.444Z,96.09
2023-04-15T02:08:56.620Z,96.37
2023-04-15T02:11:59.559Z,96.83
2023-04-15T02:15:02.553Z,97.22
2023-04-15T02:18:05.432Z,97.56
2023-04-15T02:21:08.307Z,97.48
2023-04-15T02:24:12.843Z,97.25
2023-04-15T02:27:22.988Z,96.90
2023-04-15T02:30:27.288Z,96.43
2023-04-15T02:33:29.633Z,96.17
2023-04-15T02:36:32.272Z,96.08
2023-04-15T02:39:34.659Z,96.05
2023-04-15T02:42:37.811Z,96.06
2023-04-15T02:45:41.405Z,96.36
2023-04-15T02:48:44.319Z,96.47
2023-04-15T02:51:50.033Z,96.75
2023-04-15T02:54:57.819Z,96.97
2023-04-15T02:58:01.237Z,97.03
2023-04-15T03:01:04.171Z,97.42
2023-04-15T03:04:09.045Z,97.67
2023-04-15T03:07:11.888Z,97.24
2023-04-15T03:10:14.549Z,97.13
2023-04-15T03:13:17.244Z,96.78
2023-04-15T03:16:20.060Z,96.67
2023-04-15T03:19:22.960Z,96.55
2023-04-15T03:22:26.664Z,96.24
2023-04-15T03:25:29.585Z,96.16
2023-04-15T03:28:32.861Z,96.18
2023-04-15T03:31:36.054Z,96.55
2023-04-15T03:34:38.362Z,97.01
2023-04-15T03:37:41.332Z,97.33
2023-04-15T03:40:44.227Z,97.16
2023-04-15T03:43:46.952Z,97.54
2023-04-15T03:46:49.649Z,98.28
2023-04-15T03:49:52.569Z,98.02
2023-04-15T03:52:55.028Z,98.51
2023-04-15T03:55:57.670Z,98.73
2023-04-15T03:59:00.422Z,99.24
2023-04-15T04:02:03.381Z,98.85
2023-04-15T04:05:06.487Z,98.97
2023-04-15T04:08:08.913Z,99.13
2023-04-15T04:11:11.880Z,99.37
2023-04-15T04:14:14.330Z,99.14
2023-04-15T04:17:17.083Z,99.20
2023-04-15T04:20:19.471Z,99.05
2023-04-15T04:23:22.092Z,98.81
2023-04-15T04:26:24.442Z,98.45
2023-04-15T04:29:27.125Z,98.36
2023-04-15T04:32:29.673Z,98.48
2023-04-15T04:35:34.948Z,98.56
2023-04-15T04:38:37.461Z,98.53
2023-04-15T04:41:40.246Z,98.20
2023-04-15T04:44:42.755Z,98.05
2023-04-15T04:47:45.568Z,97.90
2023-04-15T04:50:48.188Z,97.63
2023-04-15T04:53:50.975Z,97.50
2023-04-15T04:56:53.477Z,97.02
2023-04-15T04:59:56.262Z,96.84
2023-04-15T05:02:59.223Z,96.46
2023-04-15T05:06:06.189Z,96.25
2023-04-15T05:09:08.601Z,95.91
2023-04-15T05:12:15.056Z,94.97
2023-04-15T05:15:17.847Z,94.55
2023-04-15T05:18:20.718Z,94.47
2023-04-15T05:21:23.601Z,93.44
2023-04-15T05:24:26.606Z,91.09
2023-04-15T05:27:29.132Z,89.52
2023-04-15T05:30:32.270Z,88.27
2023-04-15T05:33:34.949Z,85.94
2023-04-15T05:36:37.805Z,86.16
2023-04-15T05:39:40.376Z,85.61
2023-04-15T05:42:43.118Z,84.05
2023-04-15T05:45:45.969Z,81.83
2023-04-15T05:48:48.647Z,79.88
2023-04-15T05:51:51.575Z,78.94
2023-04-15T05:54:54.477Z,78.26
2023-04-15T05:57:57.426Z,77.74
2023-04-15T06:01:00.520Z,73.92
2023-04-15T06:04:03.273Z,76.95
2023-04-15T06:07:06.091Z,75.33
2023-04-15T06:10:09.273Z,75.10
2023-04-15T06:13:11.709Z,73.62
2023-04-15T06:16:14.529Z,73.55
2023-04-15T06:19:17.285Z,74.18
2023-04-15T06:22:20.068Z,74.37
2023-04-15T06:25:22.656Z,73.05
2023-04-15T06:28:25.595Z,70.95
2023-04-15T06:31:28.004Z,70.82
2023-04-15T06:34:30.797Z,70.74
2023-04-15T06:37:33.177Z,68.76
2023-04-15T06:40:36.115Z,67.04
2023-04-15T06:43:39.383Z,65.24
2023-04-15T06:46:42.252Z,63.49
2023-04-15T06:49:45.002Z,63.15
2023-04-15T06:52:47.741Z,61.36
2023-04-15T06:55:50.034Z,61.51
2023-04-15T06:58:52.913Z,60.50
2023-04-15T07:01:55.741Z,59.72
2023-04-15T07:04:58.511Z,57.91
2023-04-15T07:08:01.253Z,59.67
2023-04-15T07:11:04.354Z,59.33
2023-04-15T07:14:06.943Z,59.30
2023-04-15T07:17:09.994Z,60.34
2023-04-15T07:20:13.037Z,60.10
2023-04-15T07:23:16.384Z,57.63
2023-04-15T07:26:18.794Z,56.97
2023-04-15T07:29:21.702Z,56.42
2023-04-15T07:32:24.202Z,58.59
2023-04-15T07:35:27.647Z,57.64
2023-04-15T07:38:30.166Z,56.54
2023-04-15T07:41:33.080Z,59.17
2023-04-15T07:44:35.752Z,59.43
2023-04-15T07:47:38.453Z,59.73
2023-04-15T07:50:40.840Z,59.98
2023-04-15T07:53:44.768Z,58.88
2023-04-15T07:56:47.282Z,57.37
2023-04-15T07:59:50.111Z,58.65
2023-04-15T08:02:54.152Z,51.90
2023-04-15T08:05:57.557Z,51.03
2023-04-15T08:09:00.546Z,47.65
2023-04-15T08:12:03.919Z,48.99
2023-04-15T08:15:08.342Z,48.08
2023-04-15T08:18:11.339Z,50.73
2023-04-15T08:21:14.084Z,55.45
2023-04-15T08:24:16.805Z,58.15
2023-04-15T08:27:20.069Z,56.09
2023-04-15T08:30:22.830Z,57.47
2023-04-15T08:33:25.978Z,58.75
2023-04-15T08:36:28.669Z,58.64
2023-04-15T08:39:31.187Z,59.97
2023-04-15T08:42:42.901Z,60.87
2023-04-15T08:45:46.935Z,60.25
2023-04-15T08:48:50.500Z,54.23
2023-04-15T08:51:53.311Z,54.77
2023-04-15T08:55:01.091Z,55.34
2023-04-15T08:58:04.788Z,56.30
2023-04-15T09:01:07.958Z,51.84
2023-04-15T09:04:12.597Z,49.06
2023-04-15T09:07:15.480Z,52.72
2023-04-15T09:10:17.994Z,54.30
2023-04-15T09:13:20.638Z,56.53
2023-04-15T09:16:23.159Z,57.66
2023-04-15T09:19:26.321Z,57.49
2023-04-15T09:22:33.047Z,58.19
2023-04-15T09:25:35.902Z,57.48
2023-04-15T09:28:43.613Z,55.45
2023-04-15T09:31:46.649Z,54.65
2023-04-15T09:34:49.164Z,56.64
2023-04-15T09:37:52.783Z,56.99
2023-04-15T09:40:55.449Z,50.62
2023-04-15T09:43:58.161Z,49.00
2023-04-15T09:47:00.945Z,50.21
2023-04-15T09:50:03.997Z,42.16
2023-04-15T09:53:06.500Z,40.76
2023-04-15T09:56:10.616Z,38.91
2023-04-15T09:59:13.106Z,38.15
2023-04-15T10:02:16.553Z,38.61
2023-04-15T10:05:19.420Z,38.31
2023-04-15T10:08:25.028Z,37.25
2023-04-15T10:11:30.386Z,36.92
2023-04-15T10:14:38.655Z,33.76
2023-04-15T10:17:45.106Z,33.82
2023-04-15T10:20:49.160Z,32.95
2023-04-15T10:23:52.361Z,35.70
2023-04-15T10:26:55.607Z,33.37
2023-04-15T10:30:03.865Z,31.72
2023-04-15T10:33:08.858Z,31.57
2023-04-15T10:36:12.639Z,39.88
2023-04-15T10:39:34.254Z,42.58
2023-04-15T10:42:37.078Z,44.70
2023-04-15T10:45:39.492Z,46.99
2023-04-15T10:48:48.816Z,47.00
2023-04-15T10:51:59.035Z,46.03
2023-04-15T10:55:07.806Z,44.03
2023-04-15T10:58:10.460Z,44.27
2023-04-15T11:01:13.590Z,44.61
2023-04-15T11:04:35.955Z,47.62
2023-04-15T11:07:40.207Z,44.64
2023-04-15T11:10:42.555Z,40.47
2023-04-15T11:13:52.648Z,41.37
2023-04-15T11:16:55.610Z,39.51
2023-04-15T11:19:58.672Z,36.25
2023-04-15T11:23:14.166Z,34.31
2023-04-15T11:26:18.477Z,36.14
2023-04-15T11:29:21.398Z,36.12
2023-04-15T11:32:24.078Z,40.62
2023-04-15T11:35:26.856Z,41.81
2023-04-15T11:38:29.556Z,43.71
2023-04-15T11:41:31.875Z,39.73
2023-04-15T11:44:34.582Z,34.09
2023-04-15T11:47:37.939Z,36.33
2023-04-15T11:50:41.360Z,36.51
2023-04-15T11:53:52.114Z,35.09
2023-04-15T11:56:55.005Z,35.62
2023-04-15T11:59:57.454Z,33.31
2023-04-15T12:03:18.014Z,31.42
2023-04-15T12:06:24.759Z,32.38
2023-04-15T12:09:27.195Z,36.31
2023-04-15T12:12:30.905Z,37.13
2023-04-15T12:15:33.302Z,32.52
2023-04-15T12:18:38.557Z,32.17
2023-04-15T12:21:44.196Z,34.45
2023-04-15T12:24:48.832Z,36.83
2023-04-15T12:27:53.526Z,37.64
2023-04-15T12:30:56.539Z,38.29
2023-04-15T12:34:01.166Z,36.86
2023-04-15T12:37:07.284Z,39.00
2023-04-15T12:40:10.172Z,39.72
2023-04-15T12:43:12.851Z,37.61
2023-04-15T12:46:15.882Z,39.93
2023-04-15T12:49:20.976Z,41.19
2023-04-15T12:52:24.497Z,42.50
2023-04-15T12:55:27.825Z,42.28
2023-04-15T12:58:30.372Z,43.78
2023-04-15T13:01:33.431Z,41.91
2023-04-15T13:04:36.137Z,39.92
2023-04-15T13:07:39.100Z,37.82
2023-04-15T13:10:42.580Z,36.72
2023-04-15T13:13:45.629Z,38.76
2023-04-15T13:16:48.033Z,39.87
2023-04-15T13:19:50.737Z,41.00
2023-04-15T13:22:54.266Z,42.02
2023-04-15T13:25:57.233Z,42.00
2023-04-15T13:29:00.730Z,43.19
2023-04-15T13:32:03.970Z,43.60
2023-04-15T13:35:06.839Z,42.95
2023-04-15T13:38:09.634Z,44.46
2023-04-15T13:41:11.988Z,44.92
2023-04-15T13:44:14.797Z,46.65
2023-04-15T13:47:19.256Z,45.89
2023-04-15T13:50:22.350Z,46.26
2023-04-15T13:53:27.438Z,45.72
2023-04-15T13:56:41.442Z,43.64
2023-04-15T13:59:44.232Z,43.27
2023-04-15T14:02:47.114Z,42.53
2023-04-15T14:05:55.853Z,42.72
2023-04-15T14:08:58.324Z,43.36
2023-04-15T14:12:01.610Z,44.18
2023-04-15T14:15:04.430Z,43.76
2023-04-15T14:18:08.011Z,44.31
2023-04-15T14:21:10.648Z,43.40
2023-04-15T14:24:13.532Z,43.41
2023-04-15T14:27:16.797Z,42.18
2023-04-15T14:30:19.593Z,41.86
2023-04-15T14:33:21.931Z,39.97
2023-04-15T14:36:24.607Z,38.69
2023-04-15T14:39:27.462Z,38.22
2023-04-15T14:42:30.413Z,42.07
2023-04-15T14:45:33.029Z,44.19
2023-04-15T14:48:35.920Z,45.94
2023-04-15T14:51:39.649Z,47.02
2023-04-15T14:54:43.928Z,49.29
2023-04-15T14:57:46.372Z,49.78
2023-04-15T15:00:49.089Z,50.09
2023-04-15T15:03:51.653Z,47.64
2023-04-15T15:06:55.036Z,46.20
2023-04-15T15:09:57.503Z,49.35
2023-04-15T15:13:00.336Z,50.82
2023-04-15T15:16:02.931Z,50.30
2023-04-15T15:19:05.958Z,50.81
2023-04-15T15:22:08.536Z,51.72
2023-04-15T15:25:11.281Z,53.25
2023-04-15T15:28:13.722Z,54.46
2023-04-15T15:31:16.774Z,53.71
2023-04-15T15:34:19.250Z,54.12
2023-04-15T15:37:22.057Z,53.56
2023-04-15T15:40:24.622Z,53.96
2023-04-15T15:43:27.477Z,52.50
2023-04-15T15:46:31.534Z,51.66
2023-04-15T15:49:34.571Z,51.72
2023-04-15T15:52:36.947Z,51.63
2023-04-15T15:55:39.579Z,52.09
2023-04-15T15:58:45.070Z,52.04
2023-04-15T16:01:48.415Z,52.73
2023-04-15T16:04:52.610Z,52.95
2023-04-15T16:07:55.029Z,53.42
2023-04-15T16:10:57.910Z,54.23
2023-04-15T16:14:00.286Z,55.08
2023-04-15T16:17:02.930Z,55.70
2023-04-15T16:20:06.290Z,57.18
2023-04-15T16:23:14.066Z,56.71
2023-04-15T16:26:17.078Z,57.63
2023-04-15T16:29:19.995Z,57.64
2023-04-15T16:32:22.692Z,58.02
2023-04-15T16:35:25.538Z,58.80
2023-04-15T16:38:28.061Z,59.37
2023-04-15T16:41:32.595Z,59.94
2023-04-15T16:44:36.339Z,60.43
2023-04-15T16:47:39.099Z,60.79
2023-04-15T16:50:41.666Z,61.04
2023-04-15T16:53:44.477Z,61.28
2023-04-15T16:56:46.937Z,61.58
2023-04-15T16:59:50.124Z,62.19
2023-04-15T17:02:52.852Z,62.63
2023-04-15T17:05:55.917Z,63.59
2023-04-15T17:08:58.268Z,64.35
2023-04-15T17:12:01.923Z,66.38
2023-04-15T17:15:04.611Z,65.83
2023-04-15T17:18:08.679Z,66.49
2023-04-15T17:21:11.167Z,67.20
2023-04-15T17:24:13.957Z,67.72
2023-04-15T17:30:19.404Z,68.82
2023-04-15T17:33:54.049Z,69.39
2023-04-15T17:36:45.472Z,69.69
2023-04-15T17:39:48.036Z,69.85
2023-04-15T17:42:50.806Z,70.04
2023-04-15T17:45:53.195Z,70.81
2023-04-15T17:48:56.129Z,70.56
2023-04-15T17:51:58.748Z,70.71
2023-04-15T17:55:01.478Z,70.95
2023-04-15T17:58:04.052Z,71.33
2023-04-15T18:01:06.822Z,71.62
2023-04-15T18:04:09.737Z,72.03
2023-04-15T18:07:12.400Z,72.64
2023-04-15T18:10:15.026Z,73.32
2023-04-15T18:13:17.443Z,73.63
2023-04-15T18:16:20.493Z,74.20
2023-04-15T18:19:24.625Z,74.39
2023-04-15T18:22:27.362Z,74.88
2023-04-15T18:25:30.185Z,75.10
2023-04-15T18:28:33.033Z,75.92
2023-04-15T18:31:35.479Z,75.83
2023-04-15T18:34:38.421Z,75.82
2023-04-15T18:37:40.781Z,75.96
2023-04-15T18:40:43.496Z,76.24
2023-04-15T18:43:46.005Z,76.09
2023-04-15T18:46:49.473Z,75.89
2023-04-15T18:49:52.113Z,76.14
2023-04-15T18:52:54.775Z,76.76
2023-04-15T18:55:58.106Z,76.96
2023-04-15T18:59:09.880Z,77.23
2023-04-15T19:02:23.529Z,77.75
2023-04-15T19:05:26.266Z,78.06
2023-04-15T19:08:29.729Z,78.44
2023-04-15T19:11:32.335Z,78.76
2023-04-15T19:14:34.911Z,79.33
2023-04-15T19:17:37.645Z,79.75
2023-04-15T19:20:40.393Z,80.02
2023-04-15T19:23:43.352Z,80.92
2023-04-15T19:26:49.074Z,80.66
2023-04-15T19:29:51.813Z,80.50
2023-04-15T19:32:54.281Z,81.21
2023-04-15T19:36:05.437Z,81.34
2023-04-15T19:39:08.247Z,81.71
2023-04-15T19:42:11.053Z,82.25
2023-04-15T19:45:13.776Z,82.28
2023-04-15T19:48:16.864Z,81.83
2023-04-15T19:51:19.595Z,82.34
2023-04-15T19:54:25.102Z,82.13
2023-04-15T19:57:27.606Z,81.71
2023-04-15T20:00:31.432Z,81.31
2023-04-15T20:03:34.177Z,81.55
2023-04-15T20:06:36.548Z,81.33
2023-04-15T20:09:39.367Z,81.37
2023-04-15T20:12:51.628Z,81.76
2023-04-15T20:15:55.776Z,82.17
2023-04-15T20:19:18.496Z,81.65
2023-04-15T20:22:21.287Z,82.01
2023-04-15T20:25:23.983Z,82.84
2023-04-15T20:28:27.881Z,82.86
2023-04-15T20:31:30.389Z,83.01
2023-04-15T20:34:33.126Z,83.55
2023-04-15T20:37:38.069Z,83.59
2023-04-15T20:40:41.871Z,83.82
2023-04-15T20:43:44.295Z,83.94
2023-04-15T20:46:47.023Z,84.41
2023-04-15T20:49:49.708Z,84.49
2023-04-15T20:52:52.539Z,85.07
2023-04-15T20:55:55.080Z,85.06
2023-04-15T20:58:58.032Z,84.95
2023-04-15T21:02:00.749Z,85.47
2023-04-15T21:05:03.602Z,85.38
2023-04-15T21:08:06.355Z,85.69
2023-04-15T21:11:09.032Z,86.48
2023-04-15T21:14:12.359Z,87.35
2023-04-15T21:17:15.163Z,86.70
2023-04-15T21:20:17.863Z,86.79
2023-04-15T21:23:20.848Z,86.78
2023-04-15T21:26:23.265Z,86.36
2023-04-15T21:29:26.046Z,86.55
2023-04-15T21:32:30.523Z,87.20
2023-04-15T21:35:33.321Z,86.42
2023-04-15T21:38:35.785Z,86.65
2023-04-15T21:41:38.615Z,86.87
2023-04-15T21:44:41.511Z,86.89
2023-04-15T21:48:01.034Z,86.97
2023-04-15T21:51:08.133Z,86.89
2023-04-15T21:54:11.100Z,86.96
2023-04-15T21:57:13.783Z,87.06
2023-04-15T22:00:16.658Z,87.07
2023-04-15T22:03:19.452Z,87.11
2023-04-15T22:06:22.019Z,87.60
2023-04-15T22:09:24.706Z,87.86
2023-04-15T22:12:27.237Z,88.13
2023-04-15T22:15:30.134Z,88.58
2023-04-15T22:18:32.579Z,88.81
2023-04-15T22:21:35.531Z,88.34
2023-04-15T22:24:40.670Z,88.18
2023-04-15T22:27:43.807Z,87.86
2023-04-15T22:30:46.200Z,87.76
2023-04-15T22:33:48.837Z,87.56
2023-04-15T22:36:52.078Z,88.15
2023-04-15T22:39:54.878Z,88.41
2023-04-15T22:42:57.354Z,88.38
2023-04-15T22:46:01.089Z,89.10
2023-04-15T22:49:06.212Z,89.06
2023-04-15T22:52:10.425Z,89.77
2023-04-15T22:55:14.924Z,89.92
2023-04-15T22:58:18.444Z,89.94
2023-04-15T23:01:21.263Z,90.08
2023-04-15T23:04:27.674Z,90.11
2023-04-15T23:07:30.444Z,90.68
2023-04-15T23:10:33.485Z,90.69
2023-04-15T23:13:36.335Z,90.98
2023-04-15T23:16:39.194Z,91.07
2023-04-15T23:19:41.531Z,92.20
2023-04-15T23:22:44.287Z,91.60
2023-04-15T23:25:46.844Z,91.86
2023-04-15T23:28:49.532Z,92.15
2023-04-15T23:31:54.371Z,92.27
2023-04-15T23:34:57.264Z,92.43
2023-04-15T23:37:59.857Z,92.38
2023-04-15T23:41:02.620Z,92.23
2023-04-15T23:44:05.365Z,91.99
2023-04-15T23:47:08.233Z,91.85
2023-04-15T23:50:10.966Z,92.19
2023-04-15T23:53:13.558Z,92.15
2023-04-15T23:56:15.969Z,92.23
2023-04-15T23:59:18.727Z,92.22
